Terminal Aerodrome Forecast
Issued by NWS

Current Version | Previous Version | Graphics & Text | Print | Product List | Glossary On
Versions: 1 2 3 4 5 6 7 8 9 10 11 12 13 14 15 16
000
FTUS41 KILN 271000 AAA
TAFLCK
TAF AMD
KLCK 271021Z 2710/2806 19008KT P6SM BKN025
     FM271300 21010KT P6SM SCT030
     FM272000 23014G24KT P6SM VCTS BKN035CB
     FM280000 24012KT P6SM FEW040 BKN100
     FM280500 26006KT P6SM FEW050=

USA.gov is the U.S. government's official web portal to all federal, state and local government web resources and services.